createdAt,value
2022-12-11T00:00:24.938Z,100.00
2022-12-11T00:01:14.124Z,100.00
2022-12-11T00:02:01.370Z,100.00
2022-12-11T00:02:48.429Z,100.00
2022-12-11T00:03:35.302Z,100.00
2022-12-11T00:04:22.309Z,100.00
2022-12-11T00:05:09.669Z,100.00
2022-12-11T00:05:56.670Z,100.00
2022-12-11T00:06:43.611Z,100.00
2022-12-11T00:07:30.398Z,100.00
2022-12-11T00:08:17.348Z,100.00
2022-12-11T00:09:04.271Z,100.00
2022-12-11T00:09:51.219Z,100.00
2022-12-11T00:10:38.309Z,100.00
2022-12-11T00:11:25.229Z,100.00
2022-12-11T00:12:12.183Z,100.00
2022-12-11T00:12:58.981Z,100.00
2022-12-11T00:13:47.295Z,100.00
2022-12-11T00:14:34.279Z,100.00
2022-12-11T00:15:21.087Z,100.00
2022-12-11T00:16:08.610Z,100.00
2022-12-11T00:16:55.879Z,100.00
2022-12-11T00:17:42.691Z,100.00
2022-12-11T00:18:29.512Z,100.00
2022-12-11T00:19:16.895Z,100.00
2022-12-11T00:20:05.250Z,100.00
2022-12-11T00:20:52.135Z,100.00
2022-12-11T00:21:38.926Z,100.00
2022-12-11T00:22:25.713Z,100.00
2022-12-11T00:23:12.744Z,100.00
2022-12-11T00:23:59.554Z,100.00
2022-12-11T00:24:46.713Z,100.00
2022-12-11T00:25:33.511Z,100.00
2022-12-11T00:26:20.496Z,100.00
2022-12-11T00:27:08.133Z,100.00
2022-12-11T00:27:54.884Z,100.00
2022-12-11T00:28:42.705Z,100.00
2022-12-11T00:29:29.513Z,100.00
2022-12-11T00:30:16.559Z,100.00
2022-12-11T00:31:08.115Z,100.00
2022-12-11T00:31:54.887Z,100.00
2022-12-11T00:32:42.366Z,100.00
2022-12-11T00:33:29.116Z,100.00
2022-12-11T00:34:15.925Z,100.00
2022-12-11T00:35:02.776Z,100.00
2022-12-11T00:35:49.566Z,100.00
2022-12-11T00:36:36.334Z,100.00
2022-12-11T00:37:23.207Z,100.00
2022-12-11T00:38:17.724Z,100.00
2022-12-11T00:39:05.347Z,100.00
2022-12-11T00:39:52.116Z,100.00
2022-12-11T00:40:38.925Z,100.00
2022-12-11T00:41:25.765Z,100.00
2022-12-11T00:42:12.623Z,100.00
2022-12-11T00:42:59.386Z,100.00
2022-12-11T00:43:46.796Z,100.00
2022-12-11T00:44:33.773Z,100.00
2022-12-11T00:45:20.625Z,100.00
2022-12-11T00:46:07.477Z,100.00
2022-12-11T00:46:54.275Z,100.00
2022-12-11T00:47:41.043Z,100.00
2022-12-11T00:48:27.875Z,100.00
2022-12-11T00:49:14.695Z,100.00
2022-12-11T00:50:01.536Z,100.00
2022-12-11T00:50:48.333Z,100.00
2022-12-11T00:51:35.185Z,100.00
2022-12-11T00:52:22.616Z,100.00
2022-12-11T00:53:09.387Z,100.00
2022-12-11T00:53:56.206Z,100.00
2022-12-11T00:54:42.976Z,100.00
2022-12-11T00:55:29.876Z,100.00
2022-12-11T00:56:19.604Z,100.00
2022-12-11T00:57:06.366Z,100.00
2022-12-11T00:57:53.264Z,100.00
2022-12-11T00:58:40.058Z,100.00
2022-12-11T00:59:28.744Z,100.00
2022-12-11T01:00:15.782Z,100.00
2022-12-11T01:01:10.184Z,100.00
2022-12-11T01:01:57.044Z,100.00
2022-12-11T01:02:43.822Z,100.00
2022-12-11T01:03:30.628Z,100.00
2022-12-11T01:04:17.395Z,100.00
2022-12-11T01:05:04.513Z,100.00
2022-12-11T01:05:54.787Z,100.00
2022-12-11T01:06:41.614Z,100.00
2022-12-11T01:07:28.405Z,100.00
2022-12-11T01:08:15.190Z,100.00
2022-12-11T01:09:20.436Z,100.00
2022-12-11T01:10:25.340Z,100.00
2022-12-11T01:11:14.205Z,99.94
2022-12-11T01:12:01.013Z,100.00
2022-12-11T01:12:47.754Z,100.00
2022-12-11T01:13:34.666Z,100.00
2022-12-11T01:14:21.466Z,100.00
2022-12-11T01:15:08.880Z,99.83
2022-12-11T01:15:55.877Z,99.09
2022-12-11T01:16:42.763Z,99.60
2022-12-11T01:17:29.745Z,100.00
2022-12-11T01:18:16.574Z,100.00
2022-12-11T01:19:03.808Z,99.27
2022-12-11T01:19:50.592Z,99.28
2022-12-11T01:20:38.505Z,99.32
2022-12-11T01:21:25.324Z,100.00
2022-12-11T01:22:12.114Z,100.00
2022-12-11T01:23:00.255Z,100.00
2022-12-11T01:23:47.025Z,100.00
2022-12-11T01:24:33.866Z,99.35
2022-12-11T01:25:20.697Z,99.07
2022-12-11T01:26:12.949Z,99.74
2022-12-11T01:26:59.746Z,99.28
2022-12-11T01:27:46.563Z,99.33
2022-12-11T01:28:33.433Z,99.49
2022-12-11T01:29:20.193Z,99.89
2022-12-11T01:30:09.175Z,100.00
2022-12-11T01:30:55.968Z,99.94
2022-12-11T01:31:42.813Z,100.00
2022-12-11T01:32:29.595Z,100.00
2022-12-11T01:33:16.385Z,99.33
2022-12-11T01:34:03.315Z,99.37
2022-12-11T01:34:50.164Z,99.21
2022-12-11T01:35:36.975Z,99.14
2022-12-11T01:36:24.043Z,97.66
2022-12-11T01:37:10.854Z,98.48
2022-12-11T01:37:57.625Z,99.26
2022-12-11T01:38:45.658Z,98.86
2022-12-11T01:39:32.515Z,98.65
2022-12-11T01:40:20.380Z,98.00
2022-12-11T01:41:07.575Z,97.49
2022-12-11T01:42:01.526Z,96.95
2022-12-11T01:42:48.409Z,97.86
2022-12-11T01:43:35.867Z,98.24
2022-12-11T01:44:22.615Z,98.61
2022-12-11T01:45:21.554Z,99.67
2022-12-11T01:46:08.396Z,98.45
2022-12-11T01:46:55.246Z,98.51
2022-12-11T01:47:42.033Z,97.50
2022-12-11T01:48:30.457Z,97.56
2022-12-11T01:49:19.405Z,97.59
2022-12-11T01:50:06.474Z,97.54
2022-12-11T01:51:02.026Z,97.26
2022-12-11T01:52:07.105Z,96.84
2022-12-11T01:52:53.955Z,96.43
2022-12-11T01:53:43.515Z,97.83
2022-12-11T01:54:30.609Z,96.96
2022-12-11T01:55:18.445Z,96.85
2022-12-11T01:56:06.855Z,96.85
2022-12-11T01:56:56.196Z,95.70
2022-12-11T01:57:44.745Z,96.66
2022-12-11T01:58:34.465Z,96.87
2022-12-11T01:59:25.426Z,96.80
2022-12-11T02:00:13.048Z,96.39
2022-12-11T02:01:00.577Z,96.94
2022-12-11T02:01:53.864Z,96.97
2022-12-11T02:02:40.765Z,96.15
2022-12-11T02:03:27.752Z,96.30
2022-12-11T02:04:15.575Z,96.21
2022-12-11T02:05:03.855Z,96.59
2022-12-11T02:05:50.926Z,96.45
2022-12-11T02:06:42.167Z,95.55
2022-12-11T02:07:31.265Z,95.34
2022-12-11T02:08:18.345Z,95.69
2022-12-11T02:09:08.245Z,95.14
2022-12-11T02:09:55.128Z,94.88
2022-12-11T02:11:22.465Z,95.24
2022-12-11T02:12:38.385Z,96.00
2022-12-11T02:13:50.086Z,95.00
2022-12-11T02:15:01.214Z,95.53
2022-12-11T02:16:01.227Z,95.85
2022-12-11T02:17:00.295Z,94.70
2022-12-11T02:18:01.966Z,94.63
2022-12-11T02:18:56.214Z,94.79
2022-12-11T02:19:51.875Z,95.91
2022-12-11T02:20:43.643Z,95.83
2022-12-11T02:21:41.857Z,95.33
2022-12-11T02:22:46.596Z,95.74
2022-12-11T02:24:12.184Z,93.80
2022-12-11T02:25:10.188Z,93.01
2022-12-11T02:26:04.205Z,93.50
2022-12-11T02:27:03.323Z,94.14
2022-12-11T02:28:04.894Z,95.65
2022-12-11T02:28:56.807Z,95.21
2022-12-11T02:29:54.660Z,95.09
2022-12-11T02:30:42.685Z,95.82
2022-12-11T02:32:07.114Z,94.53
2022-12-11T02:32:58.747Z,94.49
2022-12-11T02:33:56.896Z,93.91
2022-12-11T02:34:48.386Z,94.18
2022-12-11T02:35:38.813Z,94.21
2022-12-11T02:36:28.776Z,93.14
2022-12-11T02:37:20.665Z,92.74
2022-12-11T02:38:15.854Z,92.97
2022-12-11T02:39:03.827Z,93.36
2022-12-11T02:39:52.576Z,92.83
2022-12-11T02:40:40.557Z,92.89
2022-12-11T02:41:27.917Z,92.49
2022-12-11T02:42:16.525Z,92.45
2022-12-11T02:43:06.246Z,92.62
2022-12-11T02:43:54.046Z,93.57
2022-12-11T02:44:41.176Z,93.21
2022-12-11T02:45:28.448Z,92.57
2022-12-11T02:46:15.933Z,92.66
2022-12-11T02:47:04.567Z,92.53
2022-12-11T02:47:52.116Z,91.86
2022-12-11T02:48:40.934Z,92.75
2022-12-11T02:49:28.494Z,92.55
2022-12-11T02:50:18.754Z,91.69
2022-12-11T02:51:07.017Z,91.86
2022-12-11T02:51:55.545Z,91.85
2022-12-11T02:52:43.265Z,92.11
2022-12-11T02:53:31.674Z,92.45
2022-12-11T02:54:21.489Z,91.39
2022-12-11T02:55:09.814Z,92.38
2022-12-11T02:56:04.795Z,91.73
2022-12-11T02:56:55.884Z,91.77
2022-12-11T02:57:43.406Z,91.74
2022-12-11T02:58:32.985Z,91.55
2022-12-11T02:59:24.484Z,90.76
2022-12-11T03:00:12.775Z,91.61
2022-12-11T03:00:59.649Z,91.21
2022-12-11T03:01:47.487Z,91.58
2022-12-11T03:02:34.466Z,91.52
2022-12-11T03:03:22.154Z,91.51
2022-12-11T03:04:09.228Z,91.67
2022-12-11T03:04:57.529Z,90.74
2022-12-11T03:05:46.306Z,90.87
2022-12-11T03:06:37.108Z,90.76
2022-12-11T03:07:28.916Z,90.92
2022-12-11T03:08:18.038Z,90.83
2022-12-11T03:09:05.886Z,91.01
2022-12-11T03:09:52.949Z,92.05
2022-12-11T03:10:39.737Z,92.61
2022-12-11T03:11:26.551Z,92.18
2022-12-11T03:12:20.407Z,90.87
2022-12-11T03:13:07.176Z,91.70
2022-12-11T03:13:54.378Z,91.23
2022-12-11T03:14:42.331Z,91.04
2022-12-11T03:15:36.485Z,90.48
2022-12-11T03:16:36.363Z,90.96
2022-12-11T03:17:33.494Z,91.64
2022-12-11T03:18:42.044Z,91.24
2022-12-11T03:19:36.032Z,91.16
2022-12-11T03:20:40.864Z,90.84
2022-12-11T03:21:38.736Z,90.91
2022-12-11T03:22:46.496Z,91.07
2022-12-11T03:23:54.871Z,90.75
2022-12-11T03:24:46.196Z,90.46
2022-12-11T03:25:44.287Z,90.73
2022-12-11T03:26:33.164Z,89.89
2022-12-11T03:27:28.017Z,90.24
2022-12-11T03:28:21.705Z,90.55
2022-12-11T03:29:16.376Z,90.49
2022-12-11T03:30:08.249Z,90.85
2022-12-11T03:30:56.196Z,90.28
2022-12-11T03:31:51.196Z,90.18
2022-12-11T03:32:50.995Z,89.26
2022-12-11T03:33:39.827Z,89.33
2022-12-11T03:34:45.084Z,90.00
2022-12-11T03:35:41.861Z,90.71
2022-12-11T03:36:32.602Z,91.31
2022-12-11T03:37:20.054Z,90.08
2022-12-11T03:38:10.034Z,90.52
2022-12-11T03:39:12.958Z,89.55
2022-12-11T03:40:04.164Z,90.25
2022-12-11T03:40:54.584Z,89.75
2022-12-11T03:41:43.035Z,89.17
2022-12-11T03:42:30.046Z,89.22
2022-12-11T03:43:17.294Z,88.67
2022-12-11T03:44:04.283Z,89.23
2022-12-11T03:44:52.434Z,90.29
2022-12-11T03:45:40.476Z,89.61
2022-12-11T03:46:35.673Z,88.93
2022-12-11T03:47:24.513Z,88.89
2022-12-11T03:48:12.152Z,89.55
2022-12-11T03:49:02.424Z,89.29
2022-12-11T03:49:50.126Z,89.44
2022-12-11T03:50:37.385Z,89.10
2022-12-11T03:51:24.444Z,89.67
2022-12-11T03:52:12.896Z,89.54
2022-12-11T03:53:01.042Z,89.65
2022-12-11T03:53:48.135Z,90.18
2022-12-11T03:54:35.297Z,90.04
2022-12-11T03:55:23.005Z,90.55
2022-12-11T03:56:11.164Z,90.17
2022-12-11T03:56:59.802Z,90.15
2022-12-11T03:57:46.585Z,90.48
2022-12-11T03:58:33.561Z,89.74
2022-12-11T03:59:20.326Z,89.05
2022-12-11T04:00:10.135Z,89.63
2022-12-11T04:00:56.915Z,89.97
2022-12-11T04:01:43.803Z,89.44
2022-12-11T04:02:31.122Z,89.64
2022-12-11T04:03:18.192Z,89.99
2022-12-11T04:04:05.113Z,89.89
2022-12-11T04:04:51.905Z,89.88
2022-12-11T04:05:38.986Z,90.13
2022-12-11T04:06:25.754Z,89.69
2022-12-11T04:07:12.536Z,89.47
2022-12-11T04:07:59.359Z,90.29
2022-12-11T04:08:46.201Z,90.00
2022-12-11T04:09:33.379Z,90.17
2022-12-11T04:10:20.170Z,90.37
2022-12-11T04:11:25.925Z,90.38
2022-12-11T04:12:12.705Z,89.41
2022-12-11T04:12:59.475Z,89.65
2022-12-11T04:13:46.345Z,89.41
2022-12-11T04:14:51.770Z,89.64
2022-12-11T04:15:39.782Z,89.23
2022-12-11T04:16:26.624Z,89.26
2022-12-11T04:17:33.397Z,88.38
2022-12-11T04:18:38.633Z,88.13
2022-12-11T04:19:44.777Z,89.24
2022-12-11T04:20:50.315Z,89.58
2022-12-11T04:21:55.915Z,89.80
2022-12-11T04:23:01.534Z,88.20
2022-12-11T04:24:07.080Z,87.51
2022-12-11T04:24:53.915Z,88.12
2022-12-11T04:25:40.716Z,88.10
2022-12-11T04:26:27.576Z,88.46
2022-12-11T04:27:14.326Z,88.89
2022-12-11T04:28:01.094Z,88.46
2022-12-11T04:28:48.394Z,87.91
2022-12-11T04:29:35.265Z,87.52
2022-12-11T04:30:28.006Z,88.22
2022-12-11T04:31:20.549Z,87.73
2022-12-11T04:32:07.375Z,88.06
2022-12-11T04:32:55.166Z,88.17
2022-12-11T04:33:42.184Z,87.45
2022-12-11T04:34:29.119Z,87.75
2022-12-11T04:35:15.974Z,87.25
2022-12-11T04:36:02.806Z,87.74
2022-12-11T04:36:49.605Z,87.91
2022-12-11T04:37:36.799Z,87.86
2022-12-11T04:38:23.585Z,88.04
2022-12-11T04:39:10.387Z,88.45
2022-12-11T04:39:57.175Z,87.89
2022-12-11T04:40:43.995Z,87.42
2022-12-11T04:41:30.913Z,87.80
2022-12-11T04:42:17.654Z,88.06
2022-12-11T04:43:04.415Z,87.29
2022-12-11T04:43:51.285Z,87.69
2022-12-11T04:44:38.075Z,87.04
2022-12-11T04:45:24.864Z,87.01
2022-12-11T04:46:15.046Z,87.08
2022-12-11T04:47:01.884Z,87.77
2022-12-11T04:47:48.756Z,87.44
2022-12-11T04:48:35.816Z,86.75
2022-12-11T04:49:22.596Z,87.44
2022-12-11T04:50:11.205Z,87.74
2022-12-11T04:50:58.644Z,87.49
2022-12-11T04:51:45.414Z,87.85
2022-12-11T04:52:32.234Z,88.41
2022-12-11T04:53:18.995Z,87.64
2022-12-11T04:54:05.795Z,87.60
2022-12-11T04:54:52.626Z,88.09
2022-12-11T04:55:39.864Z,87.94
2022-12-11T04:56:26.625Z,88.68
2022-12-11T04:57:13.496Z,89.08
2022-12-11T04:58:00.346Z,88.77
2022-12-11T04:58:48.468Z,88.95
2022-12-11T04:59:35.472Z,89.20
2022-12-11T05:00:22.896Z,89.37
2022-12-11T05:01:11.371Z,89.54
2022-12-11T05:01:58.219Z,89.99
2022-12-11T05:02:45.152Z,90.15
2022-12-11T05:03:32.006Z,90.23
2022-12-11T05:04:18.784Z,90.60
2022-12-11T05:05:06.752Z,90.76
2022-12-11T05:05:54.285Z,90.75
2022-12-11T05:06:41.075Z,91.58
2022-12-11T05:07:27.897Z,91.31
2022-12-11T05:08:14.712Z,92.07
2022-12-11T05:09:01.554Z,91.59
2022-12-11T05:09:48.415Z,91.52
2022-12-11T05:10:35.244Z,92.19
2022-12-11T05:11:22.375Z,92.35
2022-12-11T05:12:09.415Z,92.60
2022-12-11T05:12:56.195Z,92.16
2022-12-11T05:13:43.701Z,92.11
2022-12-11T05:14:32.255Z,91.98
2022-12-11T05:15:19.093Z,92.14
2022-12-11T05:16:07.611Z,92.59
2022-12-11T05:16:54.447Z,92.67
2022-12-11T05:17:41.265Z,92.14
2022-12-11T05:18:28.027Z,91.94
2022-12-11T05:19:14.864Z,92.47
2022-12-11T05:20:01.879Z,92.14
2022-12-11T05:21:01.888Z,92.09
2022-12-11T05:21:48.674Z,91.88
2022-12-11T05:22:35.633Z,92.04
2022-12-11T05:23:22.706Z,92.35
2022-12-11T05:24:09.545Z,92.39
2022-12-11T05:24:56.324Z,92.36
2022-12-11T05:25:43.115Z,92.20
2022-12-11T05:26:29.972Z,92.20
2022-12-11T05:27:16.775Z,92.22
2022-12-11T05:28:03.774Z,92.40
2022-12-11T05:28:54.506Z,91.90
2022-12-11T05:29:42.071Z,91.86
2022-12-11T05:30:28.945Z,91.87
2022-12-11T05:31:18.764Z,91.62
2022-12-11T05:32:05.774Z,92.02
2022-12-11T05:32:52.595Z,91.66
2022-12-11T05:33:39.404Z,92.29
2022-12-11T05:34:26.287Z,92.02
2022-12-11T05:35:13.276Z,91.93
2022-12-11T05:36:00.466Z,92.09
2022-12-11T05:36:47.576Z,92.56
2022-12-11T05:37:34.836Z,92.68
2022-12-11T05:38:22.788Z,92.71
2022-12-11T05:39:11.824Z,92.47
2022-12-11T05:39:58.586Z,92.23
2022-12-11T05:40:45.565Z,92.46
2022-12-11T05:41:33.126Z,92.40
2022-12-11T05:42:24.014Z,92.39
2022-12-11T05:43:13.895Z,92.07
2022-12-11T05:44:00.835Z,91.98
2022-12-11T05:44:49.784Z,92.03
2022-12-11T05:45:37.106Z,91.53
2022-12-11T05:46:26.204Z,91.53
2022-12-11T05:47:13.025Z,91.18
2022-12-11T05:47:59.844Z,91.09
2022-12-11T05:48:48.336Z,90.95
2022-12-11T05:49:35.105Z,91.29
2022-12-11T05:50:21.894Z,91.73
2022-12-11T05:51:09.659Z,91.94
2022-12-11T05:51:56.435Z,92.03
2022-12-11T05:52:43.244Z,92.19
2022-12-11T05:53:30.354Z,91.54
2022-12-11T05:54:17.450Z,90.91
2022-12-11T05:55:04.406Z,90.80
2022-12-11T05:55:51.289Z,90.62
2022-12-11T05:56:38.145Z,91.21
2022-12-11T05:57:24.938Z,91.18
2022-12-11T05:58:11.794Z,91.65
2022-12-11T05:58:59.457Z,91.74
2022-12-11T05:59:46.373Z,91.18
2022-12-11T06:00:36.209Z,90.79
2022-12-11T06:01:26.425Z,91.19
2022-12-11T06:02:13.350Z,91.35
2022-12-11T06:03:00.298Z,90.92
2022-12-11T06:03:47.696Z,91.05
2022-12-11T06:04:34.525Z,91.42
2022-12-11T06:05:21.325Z,91.64
2022-12-11T06:06:08.434Z,90.83
2022-12-11T06:06:55.430Z,90.71
2022-12-11T06:07:42.225Z,90.51
2022-12-11T06:08:29.361Z,90.69
2022-12-11T06:09:17.387Z,90.56
2022-12-11T06:10:04.744Z,90.36
2022-12-11T06:10:51.660Z,89.64
2022-12-11T06:11:39.194Z,89.79
2022-12-11T06:12:25.935Z,90.45
2022-12-11T06:13:13.187Z,90.10
2022-12-11T06:14:02.184Z,90.23
2022-12-11T06:14:48.955Z,89.80
2022-12-11T06:15:35.716Z,89.57
2022-12-11T06:16:23.334Z,89.43
2022-12-11T06:17:10.284Z,89.34
2022-12-11T06:17:57.078Z,89.13
2022-12-11T06:18:45.282Z,89.19
2022-12-11T06:19:36.735Z,89.25
2022-12-11T06:20:24.034Z,89.34
2022-12-11T06:21:17.675Z,90.00
2022-12-11T06:22:05.048Z,89.73
2022-12-11T06:22:51.845Z,89.25
2022-12-11T06:23:38.615Z,89.23
2022-12-11T06:24:25.416Z,89.43
2022-12-11T06:25:12.352Z,89.41
2022-12-11T06:25:59.416Z,89.61
2022-12-11T06:26:46.265Z,89.32
2022-12-11T06:27:33.036Z,89.00
2022-12-11T06:28:19.824Z,88.80
2022-12-11T06:29:11.036Z,88.67
2022-12-11T06:29:59.684Z,88.78
2022-12-11T06:30:46.496Z,89.13
2022-12-11T06:31:33.371Z,89.74
2022-12-11T06:32:20.186Z,89.12
2022-12-11T06:33:07.455Z,88.86
2022-12-11T06:33:54.555Z,89.16
2022-12-11T06:34:41.336Z,89.28
2022-12-11T06:35:28.205Z,89.11
2022-12-11T06:36:17.844Z,88.68
2022-12-11T06:37:04.717Z,88.76
2022-12-11T06:37:51.521Z,89.02
2022-12-11T06:38:38.664Z,89.02
2022-12-11T06:39:25.524Z,89.14
2022-12-11T06:40:15.026Z,89.15
2022-12-11T06:41:04.963Z,89.41
2022-12-11T06:41:51.737Z,89.39
2022-12-11T06:42:39.146Z,89.12
2022-12-11T06:43:26.235Z,89.47
2022-12-11T06:44:13.054Z,89.63
2022-12-11T06:45:00.037Z,89.48
2022-12-11T06:45:46.803Z,89.79
2022-12-11T06:46:33.595Z,90.03
2022-12-11T06:47:20.415Z,89.85
2022-12-11T06:48:07.213Z,89.82
2022-12-11T06:48:53.993Z,90.17
2022-12-11T06:49:40.932Z,90.40
2022-12-11T06:50:27.948Z,90.30
2022-12-11T06:51:19.885Z,89.93
2022-12-11T06:52:06.776Z,89.98
2022-12-11T06:52:53.585Z,90.44
2022-12-11T06:53:40.781Z,90.74
2022-12-11T06:54:28.856Z,90.48
2022-12-11T06:55:15.771Z,90.81
2022-12-11T06:56:07.748Z,90.46
2022-12-11T06:56:54.619Z,90.50
2022-12-11T06:57:41.575Z,90.43
2022-12-11T06:58:28.415Z,90.63
2022-12-11T06:59:15.256Z,90.79
2022-12-11T07:00:02.066Z,90.68
2022-12-11T07:00:48.953Z,90.99
2022-12-11T07:01:35.821Z,91.61
2022-12-11T07:02:23.164Z,90.76
2022-12-11T07:03:10.238Z,91.15
2022-12-11T07:03:58.752Z,91.54
2022-12-11T07:04:48.289Z,91.67
2022-12-11T07:05:37.286Z,92.08
2022-12-11T07:06:25.434Z,92.20
2022-12-11T07:07:12.610Z,92.33
2022-12-11T07:07:59.440Z,92.55
2022-12-11T07:08:46.354Z,92.95
2022-12-11T07:09:33.336Z,92.53
2022-12-11T07:10:20.174Z,92.74
2022-12-11T07:11:10.035Z,93.13
2022-12-11T07:11:57.147Z,93.82
2022-12-11T07:12:43.944Z,94.00
2022-12-11T07:13:30.715Z,94.41
2022-12-11T07:14:18.025Z,94.34
2022-12-11T07:15:08.537Z,94.13
2022-12-11T07:15:55.604Z,94.56
2022-12-11T07:16:42.451Z,95.36
2022-12-11T07:17:29.988Z,94.57
2022-12-11T07:18:16.860Z,94.82
2022-12-11T07:19:03.747Z,94.82
2022-12-11T07:19:50.617Z,95.18
2022-12-11T07:20:37.455Z,95.59
2022-12-11T07:21:24.266Z,95.48
2022-12-11T07:22:11.086Z,95.93
2022-12-11T07:22:57.904Z,96.20
2022-12-11T07:23:44.744Z,95.76
2022-12-11T07:24:31.514Z,96.48
2022-12-11T07:25:18.314Z,96.41
2022-12-11T07:26:06.815Z,97.04
2022-12-11T07:26:53.604Z,96.59
2022-12-11T07:27:40.464Z,96.84
2022-12-11T07:28:27.289Z,96.94
2022-12-11T07:29:14.226Z,97.16
2022-12-11T07:30:01.025Z,96.82
2022-12-11T07:30:47.846Z,96.66
2022-12-11T07:31:34.870Z,96.66
2022-12-11T07:32:22.221Z,96.48
2022-12-11T07:33:09.106Z,96.70
2022-12-11T07:34:05.495Z,96.81
2022-12-11T07:34:52.346Z,97.20
2022-12-11T07:35:39.116Z,97.02
2022-12-11T07:36:26.596Z,97.04
2022-12-11T07:37:13.425Z,97.52
2022-12-11T07:38:00.319Z,97.43
2022-12-11T07:38:47.248Z,97.62
2022-12-11T07:39:34.055Z,97.81
2022-12-11T07:40:20.872Z,97.64
2022-12-11T07:41:11.117Z,97.89
2022-12-11T07:41:57.885Z,98.35
2022-12-11T07:42:46.406Z,98.09
2022-12-11T07:43:34.239Z,98.06
2022-12-11T07:44:21.284Z,98.46
2022-12-11T07:45:08.933Z,98.31
2022-12-11T07:45:55.943Z,98.62
2022-12-11T07:46:42.829Z,98.52
2022-12-11T07:47:29.605Z,98.57
2022-12-11T07:48:16.396Z,98.31
2022-12-11T07:49:05.364Z,98.14
2022-12-11T07:49:52.136Z,98.15
2022-12-11T07:50:40.018Z,98.24
2022-12-11T07:51:29.537Z,98.07
2022-12-11T07:52:17.534Z,98.66
2022-12-11T07:53:04.335Z,98.85
2022-12-11T07:53:51.335Z,98.93
2022-12-11T07:54:38.129Z,98.83
2022-12-11T07:55:24.889Z,99.10
2022-12-11T07:56:11.950Z,99.26
2022-12-11T07:56:58.734Z,99.32
2022-12-11T07:57:45.564Z,99.49
2022-12-11T07:58:32.348Z,99.55
2022-12-11T07:59:19.092Z,99.22
2022-12-11T08:00:06.651Z,98.70
2022-12-11T08:00:53.775Z,98.79
2022-12-11T08:01:42.365Z,98.64
2022-12-11T08:02:32.620Z,98.81
2022-12-11T08:03:25.216Z,98.56
2022-12-11T08:04:15.937Z,98.53
2022-12-11T08:05:02.878Z,98.45
2022-12-11T08:05:50.477Z,98.62
2022-12-11T08:06:39.489Z,98.38
2022-12-11T08:07:26.278Z,98.18
2022-12-11T08:08:13.128Z,98.24
2022-12-11T08:09:01.868Z,98.10
2022-12-11T08:09:48.724Z,98.01
2022-12-11T08:10:35.575Z,98.43
2022-12-11T08:11:22.494Z,98.46
2022-12-11T08:12:09.309Z,98.14
2022-12-11T08:12:56.074Z,98.24
2022-12-11T08:13:43.379Z,98.39
2022-12-11T08:14:30.176Z,98.57
2022-12-11T08:15:17.157Z,98.16
2022-12-11T08:16:07.794Z,97.61
2022-12-11T08:16:54.517Z,97.33
2022-12-11T08:17:41.359Z,97.48
2022-12-11T08:18:28.129Z,97.95
2022-12-11T08:19:15.414Z,97.55
2022-12-11T08:20:02.238Z,97.31
2022-12-11T08:20:49.040Z,97.43
2022-12-11T08:21:35.807Z,97.70
2022-12-11T08:22:22.605Z,97.82
2022-12-11T08:23:09.385Z,97.41
2022-12-11T08:23:56.321Z,97.59
2022-12-11T08:24:43.165Z,97.47
2022-12-11T08:25:30.028Z,97.36
2022-12-11T08:26:23.055Z,97.42
2022-12-11T08:27:09.883Z,97.12
2022-12-11T08:27:56.715Z,96.82
2022-12-11T08:28:43.532Z,96.23
2022-12-11T08:29:30.296Z,96.26
2022-12-11T08:30:17.194Z,96.17
2022-12-11T08:31:06.064Z,95.93
2022-12-11T08:31:53.014Z,95.66
2022-12-11T08:32:39.808Z,95.66
2022-12-11T08:33:26.653Z,96.20
2022-12-11T08:34:14.316Z,96.72
2022-12-11T08:35:01.200Z,96.15
2022-12-11T08:35:48.145Z,95.94
2022-12-11T08:36:34.945Z,95.74
2022-12-11T08:37:21.722Z,96.40
2022-12-11T08:38:08.566Z,96.69
2022-12-11T08:38:56.424Z,96.63
2022-12-11T08:39:44.014Z,95.35
2022-12-11T08:40:30.954Z,94.24
2022-12-11T08:41:26.286Z,94.37
2022-12-11T08:42:13.163Z,94.23
2022-12-11T08:42:59.954Z,93.86
2022-12-11T08:43:47.296Z,93.84
2022-12-11T08:44:34.155Z,93.16
2022-12-11T08:45:20.934Z,92.84
2022-12-11T08:46:08.485Z,93.55
2022-12-11T08:46:55.324Z,93.86
2022-12-11T08:47:42.246Z,93.23
2022-12-11T08:48:29.035Z,93.29
2022-12-11T08:49:15.794Z,92.96
2022-12-11T08:50:03.096Z,92.93
2022-12-11T08:50:49.845Z,92.91
2022-12-11T08:51:36.869Z,92.09
2022-12-11T08:52:24.025Z,92.81
2022-12-11T08:53:10.842Z,92.43
2022-12-11T08:53:59.598Z,92.43
2022-12-11T08:54:46.374Z,92.00
2022-12-11T08:55:33.782Z,92.14
2022-12-11T08:56:21.710Z,92.09
2022-12-11T08:57:08.485Z,92.19
2022-12-11T08:57:55.584Z,91.58
2022-12-11T08:58:43.565Z,91.00
2022-12-11T08:59:30.383Z,91.43
2022-12-11T09:00:18.656Z,91.03
2022-12-11T09:01:13.127Z,90.38
2022-12-11T09:01:59.976Z,89.48
2022-12-11T09:02:46.811Z,90.05
2022-12-11T09:03:34.092Z,90.15
2022-12-11T09:04:20.905Z,90.18
2022-12-11T09:05:09.805Z,89.92
2022-12-11T09:05:56.985Z,88.76
2022-12-11T09:06:43.953Z,88.78
2022-12-11T09:07:30.724Z,87.89
2022-12-11T09:08:17.673Z,88.42
2022-12-11T09:09:04.806Z,87.45
2022-12-11T09:09:51.606Z,87.35
2022-12-11T09:10:38.424Z,87.60
2022-12-11T09:11:28.454Z,87.55
2022-12-11T09:12:15.296Z,86.75
2022-12-11T09:13:02.085Z,86.47
2022-12-11T09:13:48.944Z,86.78
2022-12-11T09:14:35.875Z,85.52
2022-12-11T09:15:22.697Z,85.76
2022-12-11T09:16:12.441Z,85.43
2022-12-11T09:16:59.485Z,84.59
2022-12-11T09:17:46.284Z,84.31
2022-12-11T09:18:33.116Z,84.92
2022-12-11T09:19:20.007Z,84.82
2022-12-11T09:20:07.513Z,85.43
2022-12-11T09:21:04.165Z,84.71
2022-12-11T09:21:50.957Z,85.55
2022-12-11T09:22:37.766Z,85.16
2022-12-11T09:23:24.546Z,86.15
2022-12-11T09:24:12.713Z,86.34
2022-12-11T09:24:59.883Z,86.12
2022-12-11T09:25:46.654Z,86.13
2022-12-11T09:26:33.495Z,85.39
2022-12-11T09:27:21.486Z,84.47
2022-12-11T09:28:08.294Z,84.08
2022-12-11T09:28:55.239Z,84.14
2022-12-11T09:29:42.293Z,84.31
2022-12-11T09:30:29.134Z,85.03
2022-12-11T09:31:18.833Z,85.17
2022-12-11T09:32:05.955Z,85.00
2022-12-11T09:32:53.294Z,84.70
2022-12-11T09:33:40.537Z,83.90
2022-12-11T09:34:29.414Z,84.34
2022-12-11T09:35:16.545Z,83.05
2022-12-11T09:36:04.247Z,83.79
2022-12-11T09:36:51.086Z,84.46
2022-12-11T09:37:37.855Z,84.61
2022-12-11T09:38:24.831Z,84.35
2022-12-11T09:39:12.565Z,83.33
2022-12-11T09:40:04.000Z,83.33
2022-12-11T09:40:54.525Z,84.65
2022-12-11T09:42:02.371Z,85.02
2022-12-11T09:43:21.694Z,83.62
2022-12-11T09:44:11.285Z,83.63
2022-12-11T09:45:02.584Z,82.86
2022-12-11T09:45:50.059Z,83.56
2022-12-11T09:46:38.039Z,82.91
2022-12-11T09:47:46.525Z,83.03
2022-12-11T09:48:34.257Z,81.53
2022-12-11T09:49:35.976Z,82.39
2022-12-11T09:50:26.987Z,82.61
2022-12-11T09:51:27.405Z,81.98
2022-12-11T09:52:17.974Z,81.93
2022-12-11T09:53:19.366Z,81.67
2022-12-11T09:54:06.497Z,81.70
2022-12-11T09:54:56.606Z,80.79
2022-12-11T09:55:52.683Z,81.01
2022-12-11T09:56:47.057Z,81.21
2022-12-11T09:57:54.411Z,81.12
2022-12-11T09:59:09.979Z,80.21
2022-12-11T10:00:04.501Z,81.09
2022-12-11T10:01:19.935Z,80.61
2022-12-11T10:02:28.425Z,81.52
2022-12-11T10:03:54.325Z,80.28
2022-12-11T10:05:12.026Z,80.07
2022-12-11T10:06:47.526Z,80.23
2022-12-11T10:08:17.681Z,80.02
2022-12-11T10:09:25.636Z,79.58
2022-12-11T10:10:15.561Z,79.76
2022-12-11T10:11:23.416Z,80.50
2022-12-11T10:12:13.006Z,79.70
2022-12-11T10:13:12.122Z,80.07
2022-12-11T10:14:36.508Z,79.30
2022-12-11T10:15:29.394Z,79.36
2022-12-11T10:16:39.265Z,78.72
2022-12-11T10:17:30.065Z,78.89
2022-12-11T10:18:21.424Z,78.93
2022-12-11T10:19:37.265Z,78.37
2022-12-11T10:20:29.424Z,79.79
2022-12-11T10:21:17.343Z,78.71
2022-12-11T10:22:04.254Z,78.61
2022-12-11T10:22:52.496Z,79.27
2022-12-11T10:23:45.156Z,78.64
2022-12-11T10:25:09.305Z,78.43
2022-12-11T10:25:54.267Z,77.52
2022-12-11T10:26:41.196Z,77.56
2022-12-11T10:27:33.098Z,77.80
2022-12-11T10:28:21.275Z,78.52
2022-12-11T10:29:14.040Z,77.46
2022-12-11T10:30:22.476Z,77.49
2022-12-11T10:31:25.675Z,76.87
2022-12-11T10:32:25.152Z,77.25
2022-12-11T10:33:11.883Z,76.77
2022-12-11T10:34:21.365Z,75.27
2022-12-11T10:35:10.687Z,76.83
2022-12-11T10:35:58.538Z,75.78